Time;durP1;ratioP1;P1;durP2;ratioP2;P2;SDS_P1;SDS_P2;PMS_P1;PMS_P2;Temp;Humidity;BMP_temperature;BMP_pressure;BME280_temperature;BME280_humidity;BME280_pressure;Samples;Min_cycle;Max_cycle;Signal;HPM_P1;HPM_P2
2021/05/26 00:09:18;;;;;;;5.85;3.20;;;20.50;54.80;;;;;;20838144;28;20072;-65
2021/05/26 00:19:20;;;;;;;6.53;2.92;;;20.40;55.30;;;;;;20838472;28;20099;-64
2021/05/26 00:29:21;;;;;;;9.63;3.50;;;20.20;56.00;;;;;;20836856;28;20058;-65
2021/05/26 00:39:22;;;;;;;6.65;3.42;;;20.10;56.30;;;;;;20836277;28;20061;-64
2021/05/26 00:49:24;;;;;;;7.40;3.30;;;20.10;56.70;;;;;;20836677;28;20049;-64
2021/05/26 00:59:25;;;;;;;10.55;4.00;;;20.00;56.90;;;;;;20835402;28;20490;-64
2021/05/26 01:09:27;;;;;;;7.93;2.92;;;19.90;57.30;;;;;;20834112;28;20482;-64
2021/05/26 01:19:28;;;;;;;9.15;3.67;;;19.70;57.90;;;;;;20833650;28;20045;-64
2021/05/26 01:29:31;;;;;;;8.38;3.30;;;19.40;58.50;;;;;;20833214;28;20452;-65
2021/05/26 01:39:32;;;;;;;8.13;3.60;;;19.30;58.90;;;;;;20831305;28;20080;-63
2021/05/26 01:49:33;;;;;;;7.63;4.05;;;19.10;59.20;;;;;;20831273;28;20041;-63
2021/05/26 01:59:35;;;;;;;9.85;5.72;;;19.10;59.70;;;;;;20829889;28;20064;-63
2021/05/26 02:09:36;;;;;;;8.00;4.03;;;19.00;59.60;;;;;;20830567;28;20056;-64
2021/05/26 02:19:38;;;;;;;9.73;3.95;;;19.00;59.50;;;;;;20829847;28;20060;-64
2021/05/26 02:29:39;;;;;;;10.68;4.13;;;18.90;59.70;;;;;;20828918;28;20042;-64
2021/05/26 02:39:40;;;;;;;6.82;3.78;;;18.90;59.70;;;;;;20845227;28;20053;-64
2021/05/26 02:49:42;;;;;;;6.15;3.60;;;18.70;59.80;;;;;;20844617;28;20501;-64
2021/05/26 02:59:43;;;;;;;8.88;4.03;;;18.70;60.00;;;;;;20843854;28;20343;-64
2021/05/26 03:09:44;;;;;;;6.00;3.35;;;18.50;60.20;;;;;;20844877;28;20399;-64
2021/05/26 03:19:45;;;;;;;7.53;3.60;;;18.40;60.20;;;;;;20866999;28;20056;-64
2021/05/26 03:29:47;;;;;;;6.47;3.50;;;18.30;60.30;;;;;;20854331;28;20057;-63
2021/05/26 03:39:48;;;;;;;8.38;3.90;;;18.30;60.20;;;;;;20842093;28;20069;-62
2021/05/26 03:49:50;;;;;;;7.80;3.80;;;18.30;60.30;;;;;;20840644;28;20050;-63
2021/05/26 03:59:51;;;;;;;7.82;3.72;;;18.20;60.30;;;;;;20840170;28;20057;-63
2021/05/26 04:09:52;;;;;;;5.78;3.80;;;18.20;60.60;;;;;;20838599;28;20054;-63
2021/05/26 04:19:53;;;;;;;6.40;3.47;;;18.10;60.80;;;;;;20836201;28;20049;-62
2021/05/26 04:29:55;;;;;;;8.57;4.90;;;18.00;61.00;;;;;;20836640;28;20136;-61
2021/05/26 04:39:57;;;;;;;8.45;4.30;;;18.00;61.30;;;;;;20836147;28;20053;-62
2021/05/26 04:49:58;;;;;;;6.55;3.70;;;18.00;61.40;;;;;;20835778;28;20056;-64
2021/05/26 05:00:00;;;;;;;6.95;3.88;;;18.00;61.50;;;;;;20837511;28;20053;-63
2021/05/26 05:10:01;;;;;;;9.45;4.45;;;18.00;61.50;;;;;;20835284;28;20478;-63
2021/05/26 05:20:03;;;;;;;8.38;3.67;;;18.00;61.40;;;;;;20833742;28;20060;-63
2021/05/26 05:30:06;;;;;;;9.20;4.22;;;18.00;60.30;;;;;;20832999;28;20064;-65
2021/05/26 05:40:08;;;;;;;11.18;4.90;;;18.00;59.90;;;;;;20832405;28;20053;-63
2021/05/26 05:50:16;;;;;;;7.70;4.68;;;18.10;60.00;;;;;;20831690;28;20096;-64
2021/05/26 06:00:18;;;;;;;10.95;4.28;;;18.10;60.20;;;;;;20830990;28;20056;-65
2021/05/26 06:10:19;;;;;;;6.97;3.88;;;18.10;58.90;;;;;;20830093;28;20049;-64
2021/05/26 06:20:21;;;;;;;7.32;3.42;;;18.10;57.90;;;;;;20829450;28;20050;-63
2021/05/26 06:30:22;;;;;;;9.05;3.80;;;18.10;57.50;;;;;;20829345;28;20057;-65
2021/05/26 06:40:24;;;;;;;8.80;4.07;;;18.20;57.40;;;;;;20828352;28;20045;-63
2021/05/26 06:50:25;;;;;;;7.72;3.38;;;18.20;57.10;;;;;;20828281;28;20107;-64
2021/05/26 07:00:27;;;;;;;7.32;3.83;;;18.20;57.20;;;;;;20828309;28;20100;-63
2021/05/26 07:10:29;;;;;;;8.13;3.78;;;18.40;56.70;;;;;;20827756;28;20115;-63
2021/05/26 07:20:31;;;;;;;9.88;3.58;;;18.60;56.10;;;;;;20833439;28;20045;-63
2021/05/26 07:30:32;;;;;;;10.60;4.05;;;18.90;55.10;;;;;;20840504;28;20057;-63
2021/05/26 07:40:34;;;;;;;8.07;3.75;;;19.20;54.20;;;;;;20839029;28;20049;-63
2021/05/26 07:50:36;;;;;;;8.02;3.55;;;19.20;54.10;;;;;;20839666;28;20056;-63
2021/05/26 08:00:37;;;;;;;8.70;3.63;;;19.90;52.40;;;;;;20838834;28;20065;-64
2021/05/26 08:10:38;;;;;;;10.13;4.10;;;20.50;51.20;;;;;;20836790;28;20061;-64
2021/05/26 08:20:40;;;;;;;8.82;4.10;;;20.50;51.40;;;;;;20835181;28;20402;-64
2021/05/26 08:30:42;;;;;;;6.20;3.27;;;21.20;50.10;;;;;;20850320;28;20414;-65
2021/05/26 08:40:43;;;;;;;6.97;3.50;;;21.60;48.90;;;;;;20836834;28;20053;-64
2021/05/26 08:50:48;;;;;;;9.35;3.10;;;22.10;47.80;;;;;;20835945;28;20359;-62
2021/05/26 09:00:49;;;;;;;7.82;4.30;;;22.60;46.50;;;;;;20833266;28;20490;-65
2021/05/26 09:10:59;;;;;;;6.53;4.35;;;23.00;45.80;;;;;;20834371;28;20048;-65
2021/05/26 09:21:00;;;;;;;12.60;4.07;;;23.30;45.30;;;;;;20832956;28;20057;-64
2021/05/26 09:31:04;;;;;;;13.57;4.32;;;23.30;45.00;;;;;;20846998;28;20465;-64
2021/05/26 09:41:14;;;;;;;8.45;3.58;;;23.60;44.60;;;;;;20830894;28;20417;-63
2021/05/26 09:51:27;;;;;;;12.00;4.03;;;23.60;44.60;;;;;;20829743;28;20053;-64
2021/05/26 10:01:30;;;;;;;9.93;4.10;;;23.90;43.70;;;;;;20829186;28;20056;-65
2021/05/26 10:11:34;;;;;;;7.10;3.85;;;24.30;43.40;;;;;;20843943;28;20045;-60
2021/05/26 10:21:37;;;;;;;10.93;3.88;;;24.40;42.70;;;;;;20907656;28;20059;-61
2021/05/26 10:31:38;;;;;;;6.75;3.40;;;24.50;42.60;;;;;;20909272;28;20076;-71
2021/05/26 10:41:52;;;;;;;10.47;3.90;;;24.50;42.60;;;;;;20908119;28;20053;-67
2021/05/26 10:51:54;;;;;;;11.07;3.70;;;24.60;42.30;;;;;;20911502;28;20052;-67
2021/05/26 11:02:10;;;;;;;8.82;3.50;;;24.30;42.80;;;;;;20925565;28;20089;-62
2021/05/26 11:12:12;;;;;;;9.50;3.55;;;24.40;42.70;;;;;;20924489;28;20049;-64
2021/05/26 11:22:15;;;;;;;9.43;3.43;;;24.50;42.90;;;;;;20906512;28;20052;-67
2021/05/26 11:32:19;;;;;;;9.73;4.00;;;24.40;43.20;;;;;;20922802;28;20136;-70
2021/05/26 11:42:22;;;;;;;15.02;4.30;;;24.50;42.70;;;;;;20921546;28;20045;-62
2021/05/26 11:52:24;;;;;;;9.77;4.88;;;24.40;43.10;;;;;;20920651;28;20052;-68
2021/05/26 12:02:25;;;;;;;9.52;3.97;;;24.40;43.10;;;;;;20922582;28;20131;-64
2021/05/26 12:12:27;;;;;;;7.57;3.63;;;24.70;42.30;;;;;;20938706;28;20049;-66
2021/05/26 12:22:46;;;;;;;9.17;4.07;;;24.80;42.50;;;;;;20922349;28;20409;-67
2021/05/26 12:32:49;;;;;;;7.10;3.70;;;25.00;41.60;;;;;;20917835;28;20147;-68
2021/05/26 12:42:50;;;;;;;16.70;4.60;;;24.90;41.90;;;;;;20920600;28;20116;-67
2021/05/26 12:52:55;;;;;;;7.10;4.30;;;25.20;41.20;;;;;;20918594;28;20095;-66
2021/05/26 13:03:16;;;;;;;8.25;3.60;;;25.50;40.40;;;;;;20918373;28;20045;-68
2021/05/26 13:13:26;;;;;;;8.00;3.20;;;25.70;40.10;;;;;;20916767;28;20056;-67
2021/05/26 13:23:27;;;;;;;6.22;3.53;;;26.00;38.60;;;;;;20916077;28;20316;-68
2021/05/26 13:33:29;;;;;;;8.80;4.05;;;26.10;37.70;;;;;;20914261;28;20100;-67
2021/05/26 13:43:30;;;;;;;9.37;3.57;;;26.20;37.60;;;;;;20913443;28;20132;-68
2021/05/26 13:53:31;;;;;;;6.13;2.90;;;26.30;36.80;;;;;;20913457;28;20122;-67
2021/05/26 14:03:32;;;;;;;6.35;2.83;;;26.40;36.60;;;;;;20913481;28;20044;-67
2021/05/26 14:13:34;;;;;;;6.40;2.55;;;26.60;35.30;;;;;;20919895;28;20084;-68
2021/05/26 14:23:35;;;;;;;5.85;2.92;;;27.00;34.20;;;;;;20911651;28;20087;-68
2021/05/26 14:33:36;;;;;;;5.05;2.70;;;27.00;34.20;;;;;;20924986;28;20057;-67
2021/05/26 14:43:39;;;;;;;4.45;2.47;;;27.30;33.00;;;;;;20926529;28;20052;-67
2021/05/26 14:53:41;;;;;;;5.65;2.50;;;27.60;31.60;;;;;;20926697;28;20084;-68
2021/05/26 15:03:42;;;;;;;6.22;3.20;;;27.60;31.70;;;;;;20926773;28;20072;-67
2021/05/26 15:13:44;;;;;;;;;;;27.40;32.50;;;;;;20926467;28;20060;-66
2021/05/26 15:23:46;;;;;;;10.57;3.92;;;27.40;31.70;;;;;;20924966;28;19920;-68
2021/05/26 15:33:47;;;;;;;;;;;27.50;32.10;;;;;;20923183;28;20057;-68
2021/05/26 15:43:48;;;;;;;5.23;3.40;;;27.80;31.20;;;;;;20922430;28;19960;-61
2021/05/26 15:53:49;;;;;;;;;;;28.00;30.30;;;;;;20908835;28;20139;-60
2021/05/26 16:03:53;;;;;;;4.83;2.70;;;27.70;30.30;;;;;;20917725;28;19960;-64
2021/05/26 16:13:56;;;;;;;4.93;2.28;;;27.50;30.80;;;;;;20919292;28;20056;-67
2021/05/26 16:23:57;;;;;;;7.88;2.40;;;27.80;30.60;;;;;;20919196;28;20452;-68
2021/05/26 16:33:59;;;;;;;3.88;2.60;;;27.70;30.70;;;;;;20917561;28;20099;-63
2021/05/26 16:44:01;;;;;;;5.47;2.55;;;27.90;30.70;;;;;;20917110;28;20421;-61
2021/05/26 16:54:03;;;;;;;5.35;2.80;;;27.80;30.80;;;;;;20930865;28;20497;-67
2021/05/26 17:04:05;;;;;;;6.30;3.00;;;27.20;31.80;;;;;;20916740;28;20076;-60
2021/05/26 17:14:07;;;;;;;4.65;2.33;;;27.40;31.70;;;;;;20916785;28;20091;-66
2021/05/26 17:24:08;;;;;;;3.17;2.17;;;27.50;31.10;;;;;;20921733;28;20053;-60
2021/05/26 17:34:10;;;;;;;6.40;2.40;;;27.20;31.30;;;;;;20912898;28;20493;-61
2021/05/26 17:44:11;;;;;;;;;;;27.00;31.10;;;;;;20913953;28;20055;-63
2021/05/26 17:54:13;;;;;;;8.23;5.03;;;26.90;30.90;;;;;;20914697;28;19921;-64
2021/05/26 18:04:14;;;;;;;4.22;2.15;;;26.90;31.00;;;;;;20909441;28;20621;-59
2021/05/26 18:14:15;;;;;;;;;;;27.00;30.70;;;;;;20910813;28;20111;-59
2021/05/26 18:24:17;;;;;;;5.80;2.30;;;26.80;30.80;;;;;;20909754;28;19921;-60
2021/05/26 18:34:18;;;;;;;;;;;26.70;31.80;;;;;;20910509;28;20053;-60
2021/05/26 18:44:19;;;;;;;4.57;2.70;;;26.40;31.70;;;;;;20910432;28;19924;-59
2021/05/26 18:54:20;;;;;;;;;;;26.20;32.30;;;;;;20909055;28;20089;-64
2021/05/26 19:04:22;;;;;;;6.68;2.40;;;26.10;32.20;;;;;;20909851;28;19921;-60
2021/05/26 19:14:23;;;;;;;5.22;2.47;;;26.10;32.30;;;;;;20913987;28;20556;-60
2021/05/26 19:24:28;;;;;;;;;;;25.90;32.50;;;;;;20924356;28;20471;-62
2021/05/26 19:34:32;;;;;;;5.63;2.58;;;25.70;32.70;;;;;;20924879;28;20377;-62
2021/05/26 19:44:35;;;;;;;7.72;3.00;;;25.60;33.20;;;;;;20923468;28;20041;-61
2021/05/26 19:54:37;;;;;;;5.10;3.08;;;25.50;33.30;;;;;;20920606;28;20500;-62
2021/05/26 20:04:38;;;;;;;6.38;2.95;;;25.40;33.40;;;;;;20922091;28;20041;-60
2021/05/26 20:14:40;;;;;;;10.43;3.47;;;25.30;33.50;;;;;;20920590;28;20139;-63
2021/05/26 20:24:41;;;;;;;8.40;4.50;;;25.20;33.60;;;;;;20919928;28;20083;-60
2021/05/26 20:34:45;;;;;;;9.95;3.45;;;25.10;34.00;;;;;;20918967;28;20314;-62
2021/05/26 20:44:48;;;;;;;8.13;2.72;;;25.00;34.20;;;;;;20918872;28;20052;-60
2021/05/26 20:54:49;;;;;;;14.80;2.97;;;24.80;34.00;;;;;;20917390;28;20048;-60
2021/05/26 21:04:50;;;;;;;6.17;2.13;;;24.70;33.90;;;;;;20900003;28;20501;-60
2021/05/26 21:14:52;;;;;;;4.70;2.90;;;24.50;32.50;;;;;;20915873;28;20049;-66
2021/05/26 21:24:53;;;;;;;6.40;2.60;;;24.30;33.10;;;;;;20915787;28;20049;-62
2021/05/26 21:34:54;;;;;;;7.27;2.83;;;24.00;34.30;;;;;;20912396;28;20064;-61
2021/05/26 21:44:59;;;;;;;5.77;2.80;;;23.80;35.40;;;;;;20913805;28;20095;-60
2021/05/26 21:55:01;;;;;;;5.90;2.88;;;23.70;36.50;;;;;;20913363;28;20413;-61
2021/05/26 22:05:03;;;;;;;5.63;2.47;;;23.50;37.30;;;;;;20912378;28;20045;-61
2021/05/26 22:15:08;;;;;;;5.90;2.53;;;23.20;37.50;;;;;;20911593;28;20052;-61
2021/05/26 22:25:10;;;;;;;6.60;2.80;;;23.10;37.20;;;;;;20911542;28;20045;-60
2021/05/26 22:35:12;;;;;;;4.60;2.37;;;22.90;38.30;;;;;;20911410;28;20080;-60
2021/05/26 22:45:18;;;;;;;6.20;2.70;;;22.90;42.00;;;;;;20910360;28;20290;-60
2021/05/26 22:55:20;;;;;;;7.47;3.17;;;22.70;44.80;;;;;;20924215;28;20409;-59
2021/05/26 23:05:22;;;;;;;5.90;3.17;;;22.50;46.20;;;;;;20926950;28;20482;-58
2021/05/26 23:15:24;;;;;;;;;;;22.40;46.80;;;;;;20925414;28;20414;-60
2021/05/26 23:25:25;;;;;;;6.05;3.15;;;22.10;46.90;;;;;;20924860;28;19921;-60
2021/05/26 23:35:27;;;;;;;6.85;3.13;;;22.00;47.20;;;;;;20924242;28;20056;-60
2021/05/26 23:45:28;;;;;;;4.10;3.03;;;22.00;47.00;;;;;;20923426;28;20098;-60
2021/05/26 23:55:30;;;;;;;5.60;2.78;;;21.80;47.30;;;;;;20923045;28;20067;-60
